createdAt,value
2023-04-23T00:02:15.437Z,44.20
2023-04-23T00:04:49.915Z,42.20
2023-04-23T00:07:18.800Z,45.80
2023-04-23T00:09:45.535Z,42.10
2023-04-23T00:12:12.884Z,42.00
2023-04-23T00:14:40.007Z,47.50
2023-04-23T00:17:06.976Z,41.30
2023-04-23T00:19:34.059Z,48.20
2023-04-23T00:22:01.124Z,43.70
2023-04-23T00:24:28.019Z,43.00
2023-04-23T00:26:54.978Z,46.00
2023-04-23T00:29:21.754Z,44.00
2023-04-23T00:31:48.724Z,44.90
2023-04-23T00:34:15.502Z,44.30
2023-04-23T00:36:42.765Z,41.60
2023-04-23T00:39:10.915Z,42.70
2023-04-23T00:41:37.794Z,40.90
2023-04-23T00:44:04.835Z,42.20
2023-04-23T00:46:32.686Z,40.30
2023-04-23T00:48:59.554Z,43.20
2023-04-23T00:51:26.259Z,46.80
2023-04-23T00:53:53.173Z,43.60
2023-04-23T00:56:20.186Z,36.10
2023-04-23T00:58:46.916Z,37.10
2023-04-23T01:01:14.440Z,34.50
2023-04-23T01:03:42.778Z,42.70
2023-04-23T01:06:09.785Z,34.80
2023-04-23T01:08:36.756Z,34.40
2023-04-23T01:11:03.805Z,36.80
2023-04-23T01:13:32.331Z,36.00
2023-04-23T01:15:59.438Z,36.20
2023-04-23T01:18:27.058Z,29.30
2023-04-23T01:20:53.844Z,30.10
2023-04-23T01:23:21.266Z,23.70
2023-04-23T01:25:48.084Z,30.50
2023-04-23T01:28:15.765Z,28.30
2023-04-23T01:30:43.333Z,41.50
2023-04-23T01:33:10.979Z,35.70
2023-04-23T01:35:37.933Z,32.10
2023-04-23T01:38:05.360Z,28.30
2023-04-23T01:40:32.121Z,24.10
2023-04-23T01:42:58.898Z,23.70
2023-04-23T01:45:26.002Z,25.80
2023-04-23T01:47:53.020Z,24.90
2023-04-23T01:50:22.668Z,31.70
2023-04-23T01:52:50.432Z,32.90
2023-04-23T01:55:18.689Z,23.90
2023-04-23T02:00:15.169Z,30.40
2023-04-23T02:02:44.114Z,30.40
2023-04-23T02:05:16.000Z,21.00
2023-04-23T02:07:43.345Z,25.90
2023-04-23T02:10:10.395Z,21.50
2023-04-23T02:12:38.434Z,21.40
2023-04-23T02:15:06.855Z,21.00
2023-04-23T02:17:34.782Z,22.40
2023-04-23T02:20:01.936Z,23.50
2023-04-23T02:22:29.434Z,18.90
2023-04-23T02:24:56.365Z,24.60
2023-04-23T02:27:23.521Z,34.90
2023-04-23T02:29:51.285Z,31.60
2023-04-23T02:32:18.057Z,35.30
2023-04-23T02:34:44.762Z,60.80
2023-04-23T02:37:11.515Z,44.20
2023-04-23T02:39:38.414Z,40.00
2023-04-23T02:42:06.248Z,42.90
2023-04-23T02:44:33.208Z,32.60
2023-04-23T02:47:00.717Z,36.40
2023-04-23T02:49:27.631Z,33.20
2023-04-23T02:51:54.535Z,37.40
2023-04-23T02:54:21.393Z,60.40
2023-04-23T02:56:48.172Z,76.80
2023-04-23T02:59:15.224Z,64.60
2023-04-23T03:01:44.597Z,51.40
2023-04-23T03:04:11.856Z,75.00
2023-04-23T03:06:38.915Z,59.80
2023-04-23T03:09:06.072Z,54.90
2023-04-23T03:11:33.439Z,75.90
2023-04-23T03:14:00.154Z,71.50
2023-04-23T03:16:27.841Z,44.80
2023-04-23T03:18:54.990Z,49.70
2023-04-23T03:21:21.707Z,49.90
2023-04-23T03:23:49.421Z,53.40
2023-04-23T03:26:16.918Z,60.70
2023-04-23T03:28:43.918Z,54.10
2023-04-23T03:31:10.737Z,44.90
2023-04-23T03:33:37.582Z,59.70
2023-04-23T03:36:05.152Z,51.20
2023-04-23T03:38:32.307Z,37.60
2023-04-23T03:41:00.948Z,22.90
2023-04-23T03:43:27.997Z,20.70
2023-04-23T03:46:03.799Z,20.00
2023-04-23T03:48:33.319Z,24.20
2023-04-23T03:51:02.602Z,22.70
2023-04-23T03:53:39.752Z,26.40
2023-04-23T03:56:27.056Z,28.50
2023-04-23T03:59:12.169Z,24.50
2023-04-23T04:01:39.204Z,19.70
2023-04-23T04:04:06.275Z,29.90
2023-04-23T04:06:33.760Z,31.50
2023-04-23T04:09:00.594Z,33.50
2023-04-23T04:11:28.161Z,39.60
2023-04-23T04:13:54.974Z,39.40
2023-04-23T04:16:22.705Z,55.20
2023-04-23T04:18:49.568Z,54.00
2023-04-23T04:21:16.787Z,51.60
2023-04-23T04:23:47.060Z,39.40
2023-04-23T04:26:14.763Z,43.60
2023-04-23T04:28:41.456Z,37.10
2023-04-23T04:31:09.791Z,39.90
2023-04-23T04:36:08.804Z,44.70
2023-04-23T04:38:38.570Z,52.20
2023-04-23T04:41:07.076Z,50.30
2023-04-23T04:43:34.149Z,48.30
2023-04-23T04:46:01.017Z,50.40
2023-04-23T04:48:27.768Z,42.20
2023-04-23T04:50:54.503Z,35.70
2023-04-23T04:53:21.499Z,39.50
2023-04-23T04:55:48.281Z,42.50
2023-04-23T04:58:15.305Z,49.70
2023-04-23T05:00:42.769Z,53.60
2023-04-23T05:03:12.520Z,48.00
2023-04-23T05:05:40.839Z,60.40
2023-04-23T05:08:08.836Z,49.30
2023-04-23T05:10:35.615Z,51.00
2023-04-23T05:13:02.600Z,52.60
2023-04-23T05:15:29.669Z,68.00
2023-04-23T05:17:56.852Z,59.50
2023-04-23T05:20:23.703Z,48.50
2023-04-23T05:22:50.569Z,52.30
2023-04-23T05:25:17.313Z,43.10
2023-04-23T05:27:44.119Z,53.60
2023-04-23T05:30:11.076Z,56.70
2023-04-23T05:32:38.763Z,50.50
2023-04-23T05:35:06.395Z,47.40
2023-04-23T05:37:33.271Z,56.20
2023-04-23T05:40:00.493Z,58.60
2023-04-23T05:42:27.207Z,63.60
2023-04-23T05:44:55.296Z,52.90
2023-04-23T05:47:22.064Z,61.20
2023-04-23T05:49:48.941Z,60.20
2023-04-23T05:52:15.816Z,59.80
2023-04-23T05:54:42.683Z,63.50
2023-04-23T05:57:11.066Z,41.70
2023-04-23T05:59:39.353Z,49.30
2023-04-23T06:02:08.071Z,39.50
2023-04-23T06:04:35.833Z,36.30
2023-04-23T06:07:03.480Z,34.30
2023-04-23T06:09:30.224Z,57.10
2023-04-23T06:11:58.670Z,46.70
2023-04-23T06:14:25.721Z,39.00
2023-04-23T06:16:52.435Z,32.70
2023-04-23T06:19:19.330Z,31.80
2023-04-23T06:21:46.131Z,33.00
2023-04-23T06:24:12.902Z,22.00
2023-04-23T06:26:39.740Z,24.40
2023-04-23T06:29:10.237Z,25.20
2023-04-23T06:31:59.109Z,22.40
2023-04-23T06:34:25.840Z,13.80
2023-04-23T06:36:53.671Z,19.00
2023-04-23T06:41:48.836Z,13.60
2023-04-23T06:44:42.501Z,17.00
2023-04-23T06:47:09.826Z,10.40
2023-04-23T06:49:36.805Z,19.40
2023-04-23T06:52:03.830Z,12.20
2023-04-23T06:54:33.355Z,30.20
2023-04-23T06:57:00.879Z,32.30
2023-04-23T06:59:27.603Z,30.20
2023-04-23T07:01:54.792Z,25.00
2023-04-23T07:04:21.551Z,15.00
2023-04-23T07:06:48.446Z,9.90
2023-04-23T07:09:15.240Z,11.60
2023-04-23T07:11:41.992Z,8.80
2023-04-23T07:14:10.542Z,8.80
2023-04-23T07:16:37.482Z,3.80
2023-04-23T07:19:04.183Z,7.80
2023-04-23T07:21:32.430Z,11.60
2023-04-23T07:26:27.324Z,9.70
2023-04-23T07:28:54.381Z,4.90
2023-04-23T07:31:28.871Z,3.80
2023-04-23T07:33:55.969Z,7.60
2023-04-23T07:36:22.821Z,4.30
2023-04-23T07:38:50.439Z,5.80
2023-04-23T07:41:17.701Z,4.10
2023-04-23T07:43:44.882Z,8.50
2023-04-23T07:46:11.954Z,6.30
2023-04-23T07:48:39.220Z,4.40
2023-04-23T07:51:06.070Z,3.50
2023-04-23T07:53:33.105Z,2.10
2023-04-23T07:56:00.343Z,3.30
2023-04-23T07:58:27.443Z,4.80
2023-04-23T08:00:54.198Z,2.70
2023-04-23T08:03:21.973Z,1.80
2023-04-23T08:05:49.097Z,2.00
2023-04-23T08:08:15.967Z,4.40
2023-04-23T08:10:42.765Z,3.60
2023-04-23T08:13:09.617Z,1.90
2023-04-23T08:15:36.575Z,4.20
2023-04-23T08:18:04.059Z,3.60
2023-04-23T08:20:31.769Z,3.50
2023-04-23T08:22:58.671Z,4.90
2023-04-23T08:25:25.436Z,4.70
2023-04-23T08:27:52.274Z,3.60
2023-04-23T08:30:19.156Z,3.10
2023-04-23T08:32:48.633Z,4.00
2023-04-23T08:35:15.513Z,4.20
2023-04-23T08:37:42.303Z,1.90
2023-04-23T08:40:09.398Z,1.60
2023-04-23T08:42:43.594Z,3.40
2023-04-23T08:45:10.988Z,2.50
2023-04-23T08:47:42.301Z,4.40
2023-04-23T08:50:13.934Z,11.40
2023-04-23T08:52:44.359Z,3.10
2023-04-23T08:55:11.634Z,5.70
2023-04-23T08:57:39.674Z,3.70
2023-04-23T09:00:10.357Z,6.00
2023-04-23T09:02:42.370Z,7.00
2023-04-23T09:05:09.428Z,7.70
2023-04-23T09:07:36.357Z,5.00
2023-04-23T09:10:04.102Z,8.40
2023-04-23T09:12:31.087Z,8.20
2023-04-23T09:14:57.857Z,3.60
2023-04-23T09:17:26.656Z,3.60
2023-04-23T09:19:53.621Z,4.90
2023-04-23T09:22:39.911Z,13.60
2023-04-23T09:25:10.713Z,2.40
2023-04-23T09:27:38.028Z,6.30
2023-04-23T09:30:07.855Z,6.60
2023-04-23T09:32:35.720Z,4.00
2023-04-23T09:35:06.818Z,4.80
2023-04-23T09:37:34.550Z,3.60
2023-04-23T09:40:05.119Z,3.40
2023-04-23T09:42:32.588Z,3.60
2023-04-23T09:45:03.633Z,4.70
2023-04-23T09:47:34.405Z,6.00
2023-04-23T09:50:01.379Z,16.80
2023-04-23T09:52:30.166Z,3.20
2023-04-23T09:54:58.731Z,2.00
2023-04-23T09:57:25.999Z,5.70
2023-04-23T10:00:06.979Z,2.50
2023-04-23T10:02:48.607Z,2.20
2023-04-23T10:07:50.735Z,2.90
2023-04-23T10:10:19.305Z,2.90
2023-04-23T10:12:55.017Z,2.00
2023-04-23T10:15:24.691Z,2.80
2023-04-23T10:17:52.089Z,6.20
2023-04-23T10:20:20.717Z,2.10
2023-04-23T10:22:47.584Z,4.70
2023-04-23T10:25:14.415Z,3.10
2023-04-23T10:27:53.958Z,2.20
2023-04-23T10:30:22.264Z,4.00
2023-04-23T10:32:49.917Z,3.10
2023-04-23T10:35:16.978Z,2.20
2023-04-23T10:37:44.075Z,3.90
2023-04-23T10:40:13.549Z,2.70
2023-04-23T10:42:40.601Z,4.00
2023-04-23T10:45:23.358Z,3.20
2023-04-23T10:47:54.725Z,5.00
2023-04-23T10:50:26.498Z,6.90
2023-04-23T10:52:54.176Z,5.30
2023-04-23T10:55:22.596Z,4.80
2023-04-23T10:58:01.899Z,11.00
2023-04-23T11:00:44.764Z,2.10
2023-04-23T11:03:44.010Z,3.10
2023-04-23T11:06:37.393Z,3.10
2023-04-23T11:09:34.822Z,4.20
2023-04-23T11:12:03.509Z,7.00
2023-04-23T11:14:35.676Z,5.40
2023-04-23T11:17:04.182Z,2.60
2023-04-23T11:19:36.329Z,4.30
2023-04-23T11:22:19.962Z,7.00
2023-04-23T11:24:49.493Z,3.80
2023-04-23T11:27:18.024Z,3.10
2023-04-23T11:29:45.991Z,2.50
2023-04-23T11:32:15.017Z,2.70
2023-04-23T11:34:47.001Z,2.80
2023-04-23T11:37:14.891Z,3.10
2023-04-23T11:39:51.068Z,3.70
2023-04-23T11:42:19.693Z,2.90
2023-04-23T11:44:47.460Z,3.00
2023-04-23T11:47:16.139Z,3.80
2023-04-23T11:49:43.899Z,8.30
2023-04-23T11:52:11.484Z,3.10
2023-04-23T11:54:41.559Z,5.20
2023-04-23T11:57:09.458Z,5.20
2023-04-23T12:02:03.314Z,6.10
2023-04-23T12:04:30.993Z,18.90
2023-04-23T12:06:58.359Z,8.70
2023-04-23T12:09:27.183Z,4.00
2023-04-23T12:11:53.950Z,5.20
2023-04-23T12:14:28.099Z,4.10
2023-04-23T12:16:55.516Z,4.70
2023-04-23T12:19:27.850Z,5.20
2023-04-23T12:22:02.076Z,3.90
2023-04-23T12:24:46.451Z,5.10
2023-04-23T12:27:15.158Z,3.20
2023-04-23T12:29:43.369Z,3.70
2023-04-23T12:32:11.550Z,4.60
2023-04-23T12:34:52.367Z,4.80
2023-04-23T12:37:29.099Z,3.90
2023-04-23T12:39:58.573Z,9.60
2023-04-23T12:42:26.567Z,7.70
2023-04-23T12:44:58.010Z,7.80
2023-04-23T12:47:25.303Z,7.30
2023-04-23T12:49:56.134Z,3.60
2023-04-23T12:52:22.947Z,3.40
2023-04-23T12:54:55.679Z,2.90
2023-04-23T12:57:23.825Z,3.80
2023-04-23T12:59:51.042Z,3.90
2023-04-23T13:02:18.200Z,3.90
2023-04-23T13:07:14.093Z,6.40
2023-04-23T13:12:08.018Z,5.40
2023-04-23T13:14:42.421Z,6.00
2023-04-23T13:17:09.145Z,4.30
2023-04-23T13:19:40.083Z,8.20
2023-04-23T13:22:07.302Z,4.90
2023-04-23T13:24:34.641Z,7.70
2023-04-23T13:27:01.445Z,5.30
2023-04-23T13:29:29.573Z,5.20
2023-04-23T13:31:56.656Z,35.70
2023-04-23T13:34:23.525Z,10.30
2023-04-23T13:36:50.560Z,13.00
2023-04-23T13:39:18.133Z,7.40
2023-04-23T13:41:47.829Z,7.40
2023-04-23T13:44:18.393Z,7.60
2023-04-23T13:46:45.277Z,5.90
2023-04-23T13:49:12.427Z,5.70
2023-04-23T13:51:39.352Z,4.80
2023-04-23T13:54:06.157Z,4.80
2023-04-23T13:56:33.848Z,9.30
2023-04-23T14:01:33.341Z,10.30
2023-04-23T14:04:00.384Z,7.30
2023-04-23T14:06:29.641Z,5.70
2023-04-23T14:08:56.998Z,5.90
2023-04-23T14:11:24.882Z,5.40
2023-04-23T14:13:52.028Z,3.90
2023-04-23T14:16:18.833Z,3.80
2023-04-23T14:18:45.892Z,4.10
2023-04-23T14:21:14.904Z,3.30
2023-04-23T14:23:44.405Z,4.60
2023-04-23T14:28:44.991Z,6.60
2023-04-23T14:31:12.067Z,6.70
2023-04-23T14:33:38.832Z,3.80
2023-04-23T14:36:08.241Z,5.30
2023-04-23T14:38:35.975Z,10.60
2023-04-23T14:41:05.181Z,8.00
2023-04-23T14:43:33.647Z,4.10
2023-04-23T14:46:01.217Z,5.10
2023-04-23T14:48:28.584Z,13.00
2023-04-23T14:50:55.308Z,4.80
2023-04-23T14:53:22.075Z,4.00
2023-04-23T14:55:48.876Z,4.70
2023-04-23T14:58:15.670Z,3.40
2023-04-23T15:00:42.454Z,3.80
2023-04-23T15:03:10.409Z,5.90
2023-04-23T15:05:39.437Z,9.30
2023-04-23T15:08:06.233Z,7.60
2023-04-23T15:10:33.165Z,8.60
2023-04-23T15:13:12.599Z,5.30
2023-04-23T15:15:47.692Z,5.60
2023-04-23T15:18:14.785Z,3.40
2023-04-23T15:20:42.409Z,8.70
2023-04-23T15:23:09.883Z,4.70
2023-04-23T15:25:38.676Z,6.20
2023-04-23T15:30:33.677Z,4.50
2023-04-23T15:33:00.649Z,4.90
2023-04-23T15:35:29.097Z,6.60
2023-04-23T15:37:56.672Z,5.00
2023-04-23T15:40:23.690Z,5.40
2023-04-23T15:42:50.414Z,3.90
2023-04-23T15:45:17.596Z,9.50
2023-04-23T15:47:44.661Z,5.60
2023-04-23T15:50:12.279Z,5.30
2023-04-23T15:52:41.192Z,8.80
2023-04-23T15:55:08.537Z,17.60
2023-04-23T15:57:35.424Z,8.90
2023-04-23T16:00:02.401Z,13.70
2023-04-23T16:02:39.335Z,15.20
2023-04-23T16:05:06.476Z,9.30
2023-04-23T16:07:33.481Z,12.00
2023-04-23T16:10:00.333Z,9.40
2023-04-23T16:12:27.413Z,15.80
2023-04-23T16:14:54.308Z,9.00
2023-04-23T16:17:22.407Z,5.80
2023-04-23T16:19:49.301Z,7.90
2023-04-23T16:22:16.987Z,7.90
2023-04-23T16:24:44.087Z,6.40
2023-04-23T16:27:11.465Z,14.90
2023-04-23T16:29:38.292Z,11.90
2023-04-23T16:32:06.451Z,11.30
2023-04-23T16:34:34.279Z,22.50
2023-04-23T16:37:00.959Z,45.30
2023-04-23T16:39:27.663Z,33.10
2023-04-23T16:41:54.571Z,52.60
2023-04-23T16:44:21.464Z,28.10
2023-04-23T16:46:48.348Z,28.70
2023-04-23T16:49:15.129Z,25.60
2023-04-23T16:51:41.932Z,39.70
2023-04-23T16:54:08.679Z,51.80
2023-04-23T16:56:36.845Z,80.30
2023-04-23T16:59:04.030Z,53.60
2023-04-23T17:01:31.134Z,70.50
2023-04-23T17:03:58.140Z,61.30
2023-04-23T17:06:27.321Z,77.00
2023-04-23T17:08:57.122Z,98.90
2023-04-23T17:11:25.026Z,216.00
2023-04-23T17:13:53.134Z,273.60
2023-04-23T17:18:47.607Z,108.80
2023-04-23T17:21:15.766Z,83.00
2023-04-23T17:23:42.535Z,87.30
2023-04-23T17:26:09.793Z,55.00
2023-04-23T17:28:36.791Z,32.10
2023-04-23T17:31:03.594Z,38.50
2023-04-23T17:33:30.742Z,27.40
2023-04-23T17:35:57.502Z,34.10
2023-04-23T17:38:25.418Z,46.80
2023-04-23T17:40:52.354Z,41.10
2023-04-23T17:43:19.596Z,56.70
2023-04-23T17:45:47.057Z,60.90
2023-04-23T17:48:14.227Z,55.70
2023-04-23T17:50:41.567Z,125.70
2023-04-23T17:53:09.394Z,86.30
2023-04-23T17:55:36.678Z,72.50
2023-04-23T17:58:06.593Z,56.60
2023-04-23T18:00:38.278Z,51.80
2023-04-23T18:03:05.857Z,50.00
2023-04-23T18:05:35.016Z,57.60
2023-04-23T18:08:02.043Z,49.00
2023-04-23T18:10:29.250Z,65.90
2023-04-23T18:12:56.328Z,113.20
2023-04-23T18:15:25.005Z,204.10
2023-04-23T18:17:55.098Z,161.50
2023-04-23T18:20:24.896Z,171.50
2023-04-23T18:22:55.642Z,168.30
2023-04-23T18:25:24.810Z,205.90
2023-04-23T18:27:52.311Z,266.20
2023-04-23T18:30:22.592Z,243.00
2023-04-23T18:33:28.668Z,215.20
2023-04-23T18:35:58.749Z,169.00
2023-04-23T18:38:40.054Z,187.30
2023-04-23T18:41:06.823Z,169.40
2023-04-23T18:43:34.411Z,207.40
2023-04-23T18:46:01.521Z,167.40
2023-04-23T18:48:35.089Z,163.90
2023-04-23T18:51:12.564Z,119.00
2023-04-23T18:53:39.264Z,85.80
2023-04-23T18:56:06.008Z,49.00
2023-04-23T18:58:32.873Z,72.20
2023-04-23T19:01:00.263Z,78.50
2023-04-23T19:03:28.645Z,57.80
2023-04-23T19:05:55.521Z,57.40
2023-04-23T19:08:27.699Z,44.80
2023-04-23T19:10:55.533Z,43.00
2023-04-23T19:13:22.362Z,47.50
2023-04-23T19:15:50.265Z,45.60
2023-04-23T19:18:17.355Z,36.70
2023-04-23T19:20:44.345Z,93.00
2023-04-23T19:23:14.651Z,44.10
2023-04-23T19:25:41.647Z,69.70
2023-04-23T19:28:08.422Z,41.80
2023-04-23T19:30:35.316Z,40.10
2023-04-23T19:33:03.889Z,57.10
2023-04-23T19:35:31.213Z,83.50
2023-04-23T19:37:58.417Z,59.80
2023-04-23T19:40:25.281Z,69.20
2023-04-23T19:42:52.183Z,67.50
2023-04-23T19:45:19.101Z,65.80
2023-04-23T19:47:45.967Z,50.20
2023-04-23T19:50:13.267Z,52.40
2023-04-23T19:52:40.618Z,39.70
2023-04-23T19:55:07.801Z,63.80
2023-04-23T19:57:35.293Z,66.90
2023-04-23T20:00:05.359Z,68.60
2023-04-23T20:02:34.400Z,65.00
2023-04-23T20:05:04.349Z,90.10
2023-04-23T20:07:32.221Z,106.30
2023-04-23T20:09:59.018Z,87.20
2023-04-23T20:12:25.778Z,89.00
2023-04-23T20:14:53.744Z,352.40
2023-04-23T20:17:20.566Z,393.20
2023-04-23T20:19:49.073Z,104.60
2023-04-23T20:22:16.001Z,279.10
2023-04-23T20:24:45.831Z,102.80
2023-04-23T20:27:12.614Z,64.40
2023-04-23T20:29:39.544Z,65.60
2023-04-23T20:32:06.551Z,74.50
2023-04-23T20:34:33.642Z,72.20
2023-04-23T20:37:01.585Z,92.00
2023-04-23T20:39:29.117Z,125.70
2023-04-23T20:41:57.311Z,91.60
2023-04-23T20:44:24.956Z,82.90
2023-04-23T20:46:52.332Z,78.80
2023-04-23T20:49:19.142Z,77.70
2023-04-23T20:51:46.128Z,309.00
2023-04-23T20:54:12.938Z,204.40
2023-04-23T20:56:40.117Z,142.00
2023-04-23T20:59:06.927Z,128.80
2023-04-23T21:01:33.913Z,89.20
2023-04-23T21:04:01.017Z,47.60
2023-04-23T21:06:30.660Z,45.80
2023-04-23T21:08:57.695Z,67.50
2023-04-23T21:11:25.573Z,81.50
2023-04-23T21:13:52.602Z,99.40
2023-04-23T21:16:19.485Z,68.40
2023-04-23T21:18:46.246Z,70.60
2023-04-23T21:21:13.036Z,45.20
2023-04-23T21:23:39.857Z,51.70
2023-04-23T21:26:07.978Z,37.40
2023-04-23T21:28:35.772Z,49.30
2023-04-23T21:31:43.490Z,42.90
2023-04-23T21:34:10.256Z,38.80
2023-04-23T21:36:37.129Z,31.60
2023-04-23T21:39:03.947Z,29.90
2023-04-23T21:41:30.708Z,32.40
2023-04-23T21:43:57.556Z,26.10
2023-04-23T21:46:24.444Z,30.90
2023-04-23T21:48:52.907Z,30.70
2023-04-23T21:53:49.419Z,34.20
2023-04-23T21:56:16.544Z,25.10
2023-04-23T21:58:43.970Z,38.40
2023-04-23T22:01:10.823Z,36.40
2023-04-23T22:03:41.533Z,35.70
2023-04-23T22:06:09.212Z,34.50
2023-04-23T22:08:39.661Z,32.20
2023-04-23T22:11:07.428Z,33.10
2023-04-23T22:13:34.964Z,34.00
2023-04-23T22:16:03.922Z,22.80
2023-04-23T22:18:34.718Z,22.70
2023-04-23T22:21:01.488Z,36.60
2023-04-23T22:23:28.378Z,25.90
2023-04-23T22:25:55.161Z,25.40
2023-04-23T22:28:21.981Z,27.00
2023-04-23T22:30:49.349Z,28.30
2023-04-23T22:33:16.298Z,25.80
2023-04-23T22:35:43.036Z,25.20
2023-04-23T22:38:10.160Z,23.20
2023-04-23T22:40:36.899Z,24.80
2023-04-23T22:43:03.618Z,25.10
2023-04-23T22:45:30.409Z,22.10
2023-04-23T22:47:57.454Z,31.40
2023-04-23T22:50:24.253Z,35.30
2023-04-23T22:52:51.628Z,44.10
2023-04-23T22:55:18.369Z,37.00
2023-04-23T22:57:45.505Z,37.20
2023-04-23T23:00:12.997Z,40.70
2023-04-23T23:02:39.969Z,33.10
2023-04-23T23:05:07.231Z,49.10
2023-04-23T23:07:34.092Z,30.90
2023-04-23T23:10:03.084Z,25.70
2023-04-23T23:12:30.210Z,26.10
2023-04-23T23:14:56.946Z,27.60
2023-04-23T23:17:23.810Z,25.30
2023-04-23T23:19:50.690Z,32.00
2023-04-23T23:22:17.430Z,25.20
2023-04-23T23:24:44.563Z,16.80
2023-04-23T23:27:11.323Z,13.80
2023-04-23T23:29:38.244Z,14.60
2023-04-23T23:32:04.975Z,14.50
2023-04-23T23:34:32.024Z,13.60
2023-04-23T23:36:58.764Z,14.30
2023-04-23T23:39:26.819Z,18.70
2023-04-23T23:41:53.660Z,25.70
2023-04-23T23:44:20.509Z,14.90
2023-04-23T23:46:47.297Z,12.80
2023-04-23T23:49:14.262Z,18.80
2023-04-23T23:51:41.008Z,17.70
2023-04-23T23:54:07.733Z,19.30
2023-04-23T23:56:34.490Z,18.20
2023-04-23T23:59:01.237Z,17.70
